Terminal Aerodrome Forecast
Issued by NWS North Platte, NE

Home | Current Version | Previous Version | Text Only | Print | Product List | Glossary Off
Versions: 1 2 3 4 5 6 7 8 9 10 11 12 13 14 15 16 17 18 19 20

000
FTUS43 KLBF 150340 AAA
TAFVTN
TAF AMD
KVTN 150340Z 1504/1524 11009KT P6SM VCTS BKN100CB
      TEMPO 1505/1507 VRB25G40KT 2SM +TSRA BKN030CB
     FM150900 13006KT P6SM BKN100
     FM151800 16009KT P6SM BKN100
     FM152100 17011KT P6SM VCTS BKN060CB=

USA.gov is the U.S. government's official web portal to all federal, state and local government web resources and services.